Lakeside, Michigan
Current Conditions -  °F | °C
As of 12:35 PM on Monday 22 Dec 2014 (Local Time) from KMGC Reporting Station
Drizzle Drizzle  
Wind Chill: 27°   Ceiling: 4900
Heat Index: 34°   Visibility: 7mi
Dew Point: 27°   Wind: 8mph
Humidity: 75%   Direction: 120°ESE
Pressure: 29.86"   Gusts: NA
Location:  41.84°N, 86.66°W
Report Text: KMGC 221735Z AUTO 12007KT 7SM -DZ SCT034 SCT042 BKN049 01/M03 A2986 RMK AO2
Loading
Personal Weather Stations






























Interactive Weather Map New forecast layout! Learn more

10-Day Weather Forecast

Advertisements
Track Severe Weather on mobile